sensor_id;sensor_type;location;lat;lon;timestamp;P1;durP1;ratioP1;P2;durP2;ratioP2
19374;SDS011;9823;50.936;4.046;2022-09-09T00:06:50;11.43;;;4.67;;
19374;SDS011;9823;50.936;4.046;2022-09-09T00:09:21;9.77;;;4.43;;
19374;SDS011;9823;50.936;4.046;2022-09-09T00:14:42;13.10;;;4.70;;
19374;SDS011;9823;50.936;4.046;2022-09-09T00:17:06;10.60;;;4.63;;
19374;SDS011;9823;50.936;4.046;2022-09-09T00:19:48;11.53;;;4.23;;
19374;SDS011;9823;50.936;4.046;2022-09-09T00:22:17;11.93;;;4.60;;
19374;SDS011;9823;50.936;4.046;2022-09-09T00:24:46;13.23;;;4.73;;
19374;SDS011;9823;50.936;4.046;2022-09-09T00:30:13;11.70;;;3.70;;
19374;SDS011;9823;50.936;4.046;2022-09-09T00:32:30;8.20;;;3.70;;
19374;SDS011;9823;50.936;4.046;2022-09-09T00:35:10;9.63;;;4.07;;
19374;SDS011;9823;50.936;4.046;2022-09-09T00:37:47;7.13;;;3.53;;
19374;SDS011;9823;50.936;4.046;2022-09-09T00:40:27;8.17;;;3.07;;
19374;SDS011;9823;50.936;4.046;2022-09-09T00:43:37;10.03;;;3.13;;
19374;SDS011;9823;50.936;4.046;2022-09-09T00:48:10;13.37;;;3.10;;
19374;SDS011;9823;50.936;4.046;2022-09-09T00:50:52;12.13;;;3.50;;
19374;SDS011;9823;50.936;4.046;2022-09-09T00:56:03;16.30;;;4.00;;
19374;SDS011;9823;50.936;4.046;2022-09-09T00:58:37;11.53;;;3.43;;
19374;SDS011;9823;50.936;4.046;2022-09-09T01:01:04;10.63;;;3.30;;
19374;SDS011;9823;50.936;4.046;2022-09-09T01:03:47;9.63;;;3.40;;
19374;SDS011;9823;50.936;4.046;2022-09-09T01:11:26;7.23;;;2.70;;
19374;SDS011;9823;50.936;4.046;2022-09-09T01:13:58;9.33;;;3.57;;
19374;SDS011;9823;50.936;4.046;2022-09-09T01:16:26;10.00;;;3.43;;
19374;SDS011;9823;50.936;4.046;2022-09-09T01:18:55;8.27;;;3.37;;
19374;SDS011;9823;50.936;4.046;2022-09-09T01:24:15;8.10;;;3.40;;
19374;SDS011;9823;50.936;4.046;2022-09-09T01:26:46;9.60;;;3.13;;
19374;SDS011;9823;50.936;4.046;2022-09-09T01:29:13;6.53;;;2.63;;
19374;SDS011;9823;50.936;4.046;2022-09-09T01:34:24;6.33;;;2.50;;
19374;SDS011;9823;50.936;4.046;2022-09-09T01:36:58;5.93;;;2.50;;
19374;SDS011;9823;50.936;4.046;2022-09-09T01:39:25;7.10;;;2.57;;
19374;SDS011;9823;50.936;4.046;2022-09-09T01:41:52;10.17;;;2.50;;
19374;SDS011;9823;50.936;4.046;2022-09-09T01:44:18;8.67;;;2.70;;
19374;SDS011;9823;50.936;4.046;2022-09-09T01:46:45;8.53;;;2.50;;
19374;SDS011;9823;50.936;4.046;2022-09-09T01:49:11;9.13;;;2.63;;
19374;SDS011;9823;50.936;4.046;2022-09-09T01:51:38;7.87;;;2.57;;
19374;SDS011;9823;50.936;4.046;2022-09-09T01:54:04;8.03;;;2.63;;
19374;SDS011;9823;50.936;4.046;2022-09-09T01:59:25;11.73;;;2.87;;
19374;SDS011;9823;50.936;4.046;2022-09-09T02:04:50;9.80;;;3.50;;
19374;SDS011;9823;50.936;4.046;2022-09-09T02:10:22;13.83;;;3.70;;
19374;SDS011;9823;50.936;4.046;2022-09-09T02:12:51;9.07;;;3.57;;
19374;SDS011;9823;50.936;4.046;2022-09-09T02:15:26;14.37;;;3.70;;
19374;SDS011;9823;50.936;4.046;2022-09-09T02:17:54;13.63;;;4.50;;
19374;SDS011;9823;50.936;4.046;2022-09-09T02:20:23;14.77;;;2.90;;
19374;SDS011;9823;50.936;4.046;2022-09-09T02:22:51;15.13;;;4.00;;
19374;SDS011;9823;50.936;4.046;2022-09-09T02:25:26;13.93;;;3.77;;
19374;SDS011;9823;50.936;4.046;2022-09-09T02:27:52;8.70;;;3.60;;
19374;SDS011;9823;50.936;4.046;2022-09-09T02:30:19;11.80;;;3.03;;
19374;SDS011;9823;50.936;4.046;2022-09-09T02:32:45;11.17;;;3.33;;
19374;SDS011;9823;50.936;4.046;2022-09-09T02:35:17;11.03;;;2.97;;
19374;SDS011;9823;50.936;4.046;2022-09-09T02:37:44;9.00;;;2.93;;
19374;SDS011;9823;50.936;4.046;2022-09-09T02:40:14;9.70;;;3.57;;
19374;SDS011;9823;50.936;4.046;2022-09-09T02:42:41;12.33;;;3.40;;
19374;SDS011;9823;50.936;4.046;2022-09-09T02:45:11;14.10;;;3.43;;
19374;SDS011;9823;50.936;4.046;2022-09-09T02:52:36;16.00;;;3.13;;
19374;SDS011;9823;50.936;4.046;2022-09-09T02:55:09;13.53;;;3.33;;
19374;SDS011;9823;50.936;4.046;2022-09-09T02:57:37;9.30;;;3.13;;
19374;SDS011;9823;50.936;4.046;2022-09-09T03:00:03;13.50;;;2.93;;
19374;SDS011;9823;50.936;4.046;2022-09-09T03:02:30;14.20;;;3.37;;
19374;SDS011;9823;50.936;4.046;2022-09-09T03:04:56;16.97;;;3.50;;
19374;SDS011;9823;50.936;4.046;2022-09-09T03:07:22;10.10;;;3.30;;
19374;SDS011;9823;50.936;4.046;2022-09-09T03:09:48;10.63;;;2.97;;
19374;SDS011;9823;50.936;4.046;2022-09-09T03:12:14;13.20;;;3.40;;
19374;SDS011;9823;50.936;4.046;2022-09-09T03:14:41;13.87;;;2.97;;
19374;SDS011;9823;50.936;4.046;2022-09-09T03:17:11;9.63;;;3.80;;
19374;SDS011;9823;50.936;4.046;2022-09-09T03:19:37;15.23;;;3.20;;
19374;SDS011;9823;50.936;4.046;2022-09-09T03:22:03;11.43;;;3.03;;
19374;SDS011;9823;50.936;4.046;2022-09-09T03:24:29;11.97;;;3.33;;
19374;SDS011;9823;50.936;4.046;2022-09-09T03:26:57;17.17;;;3.23;;
19374;SDS011;9823;50.936;4.046;2022-09-09T03:29:23;13.93;;;3.73;;
19374;SDS011;9823;50.936;4.046;2022-09-09T03:31:49;13.80;;;3.33;;
19374;SDS011;9823;50.936;4.046;2022-09-09T03:34:16;16.53;;;3.97;;
19374;SDS011;9823;50.936;4.046;2022-09-09T03:36:44;16.10;;;3.50;;
19374;SDS011;9823;50.936;4.046;2022-09-09T03:39:11;17.90;;;4.30;;
19374;SDS011;9823;50.936;4.046;2022-09-09T03:41:37;13.63;;;3.83;;
19374;SDS011;9823;50.936;4.046;2022-09-09T03:44:05;13.73;;;3.97;;
19374;SDS011;9823;50.936;4.046;2022-09-09T03:46:33;14.70;;;3.40;;
19374;SDS011;9823;50.936;4.046;2022-09-09T03:48:59;13.93;;;3.77;;
19374;SDS011;9823;50.936;4.046;2022-09-09T03:51:26;15.30;;;3.10;;
19374;SDS011;9823;50.936;4.046;2022-09-09T03:53:52;18.27;;;3.50;;
19374;SDS011;9823;50.936;4.046;2022-09-09T03:56:20;11.57;;;3.57;;
19374;SDS011;9823;50.936;4.046;2022-09-09T03:58:48;25.10;;;3.97;;
19374;SDS011;9823;50.936;4.046;2022-09-09T04:01:14;15.87;;;3.60;;
19374;SDS011;9823;50.936;4.046;2022-09-09T04:03:42;16.93;;;3.70;;
19374;SDS011;9823;50.936;4.046;2022-09-09T04:06:09;22.00;;;4.10;;
19374;SDS011;9823;50.936;4.046;2022-09-09T04:08:39;12.20;;;3.20;;
19374;SDS011;9823;50.936;4.046;2022-09-09T04:11:06;16.93;;;3.63;;
19374;SDS011;9823;50.936;4.046;2022-09-09T04:13:33;16.30;;;3.40;;
19374;SDS011;9823;50.936;4.046;2022-09-09T04:16:00;13.00;;;3.10;;
19374;SDS011;9823;50.936;4.046;2022-09-09T04:18:26;19.87;;;3.23;;
19374;SDS011;9823;50.936;4.046;2022-09-09T04:20:53;17.10;;;3.17;;
19374;SDS011;9823;50.936;4.046;2022-09-09T04:23:22;14.77;;;3.23;;
19374;SDS011;9823;50.936;4.046;2022-09-09T04:25:52;12.10;;;2.97;;
19374;SDS011;9823;50.936;4.046;2022-09-09T04:28:19;13.63;;;2.97;;
19374;SDS011;9823;50.936;4.046;2022-09-09T04:30:48;9.20;;;2.70;;
19374;SDS011;9823;50.936;4.046;2022-09-09T04:33:17;10.17;;;2.53;;
19374;SDS011;9823;50.936;4.046;2022-09-09T04:35:44;14.23;;;3.07;;
19374;SDS011;9823;50.936;4.046;2022-09-09T04:38:13;19.17;;;3.27;;
19374;SDS011;9823;50.936;4.046;2022-09-09T04:40:41;12.40;;;2.80;;
19374;SDS011;9823;50.936;4.046;2022-09-09T04:43:08;12.17;;;2.63;;
19374;SDS011;9823;50.936;4.046;2022-09-09T04:45:37;12.90;;;2.93;;
19374;SDS011;9823;50.936;4.046;2022-09-09T04:48:04;13.53;;;3.00;;
19374;SDS011;9823;50.936;4.046;2022-09-09T04:50:35;14.00;;;2.97;;
19374;SDS011;9823;50.936;4.046;2022-09-09T04:53:01;16.10;;;3.20;;
19374;SDS011;9823;50.936;4.046;2022-09-09T04:55:32;15.73;;;3.13;;
19374;SDS011;9823;50.936;4.046;2022-09-09T04:58:06;15.63;;;3.07;;
19374;SDS011;9823;50.936;4.046;2022-09-09T05:00:35;7.80;;;2.63;;
19374;SDS011;9823;50.936;4.046;2022-09-09T05:03:04;15.40;;;3.03;;
19374;SDS011;9823;50.936;4.046;2022-09-09T05:05:36;17.10;;;3.40;;
19374;SDS011;9823;50.936;4.046;2022-09-09T05:08:05;14.10;;;3.10;;
19374;SDS011;9823;50.936;4.046;2022-09-09T05:10:32;12.23;;;2.63;;
19374;SDS011;9823;50.936;4.046;2022-09-09T05:12:58;12.03;;;2.80;;
19374;SDS011;9823;50.936;4.046;2022-09-09T05:15:24;13.83;;;3.07;;
19374;SDS011;9823;50.936;4.046;2022-09-09T05:17:50;13.67;;;2.70;;
19374;SDS011;9823;50.936;4.046;2022-09-09T05:20:18;11.83;;;3.23;;
19374;SDS011;9823;50.936;4.046;2022-09-09T05:22:44;24.57;;;3.60;;
19374;SDS011;9823;50.936;4.046;2022-09-09T05:25:10;13.87;;;3.00;;
19374;SDS011;9823;50.936;4.046;2022-09-09T05:27:36;17.53;;;3.47;;
19374;SDS011;9823;50.936;4.046;2022-09-09T05:30:02;13.63;;;3.07;;
19374;SDS011;9823;50.936;4.046;2022-09-09T05:32:29;10.00;;;2.40;;
19374;SDS011;9823;50.936;4.046;2022-09-09T05:34:59;15.10;;;2.93;;
19374;SDS011;9823;50.936;4.046;2022-09-09T05:37:26;16.20;;;3.03;;
19374;SDS011;9823;50.936;4.046;2022-09-09T05:39:52;13.93;;;3.27;;
19374;SDS011;9823;50.936;4.046;2022-09-09T05:42:25;15.83;;;3.13;;
19374;SDS011;9823;50.936;4.046;2022-09-09T05:44:55;10.73;;;2.80;;
19374;SDS011;9823;50.936;4.046;2022-09-09T05:47:25;11.17;;;3.00;;
19374;SDS011;9823;50.936;4.046;2022-09-09T05:49:52;14.87;;;3.03;;
19374;SDS011;9823;50.936;4.046;2022-09-09T05:52:21;15.53;;;4.43;;
19374;SDS011;9823;50.936;4.046;2022-09-09T05:54:48;11.87;;;3.00;;
19374;SDS011;9823;50.936;4.046;2022-09-09T05:57:14;10.57;;;2.87;;
19374;SDS011;9823;50.936;4.046;2022-09-09T05:59:40;14.10;;;2.67;;
19374;SDS011;9823;50.936;4.046;2022-09-09T06:02:09;14.63;;;2.97;;
19374;SDS011;9823;50.936;4.046;2022-09-09T06:04:35;9.87;;;2.73;;
19374;SDS011;9823;50.936;4.046;2022-09-09T06:07:01;12.33;;;2.53;;
19374;SDS011;9823;50.936;4.046;2022-09-09T06:09:30;11.17;;;2.20;;
19374;SDS011;9823;50.936;4.046;2022-09-09T06:11:56;11.93;;;2.57;;
19374;SDS011;9823;50.936;4.046;2022-09-09T06:14:23;19.53;;;2.77;;
19374;SDS011;9823;50.936;4.046;2022-09-09T06:16:50;9.60;;;2.00;;
19374;SDS011;9823;50.936;4.046;2022-09-09T06:19:16;14.07;;;2.80;;
19374;SDS011;9823;50.936;4.046;2022-09-09T06:21:43;9.80;;;2.03;;
19374;SDS011;9823;50.936;4.046;2022-09-09T06:24:12;8.97;;;1.97;;
19374;SDS011;9823;50.936;4.046;2022-09-09T06:26:44;9.57;;;2.20;;
19374;SDS011;9823;50.936;4.046;2022-09-09T06:29:11;18.33;;;2.47;;
19374;SDS011;9823;50.936;4.046;2022-09-09T06:31:39;10.90;;;2.30;;
19374;SDS011;9823;50.936;4.046;2022-09-09T06:34:07;11.50;;;2.30;;
19374;SDS011;9823;50.936;4.046;2022-09-09T06:36:34;14.40;;;2.33;;
19374;SDS011;9823;50.936;4.046;2022-09-09T06:39:01;9.53;;;2.30;;
19374;SDS011;9823;50.936;4.046;2022-09-09T06:41:28;10.83;;;2.10;;
19374;SDS011;9823;50.936;4.046;2022-09-09T06:43:55;8.30;;;2.13;;
19374;SDS011;9823;50.936;4.046;2022-09-09T06:46:22;10.23;;;2.20;;
19374;SDS011;9823;50.936;4.046;2022-09-09T06:48:48;11.30;;;2.17;;
19374;SDS011;9823;50.936;4.046;2022-09-09T06:51:15;9.03;;;1.97;;
19374;SDS011;9823;50.936;4.046;2022-09-09T06:53:42;14.40;;;2.67;;
19374;SDS011;9823;50.936;4.046;2022-09-09T06:58:35;12.53;;;1.90;;
19374;SDS011;9823;50.936;4.046;2022-09-09T07:01:05;14.63;;;2.40;;
19374;SDS011;9823;50.936;4.046;2022-09-09T07:03:31;13.23;;;2.30;;
19374;SDS011;9823;50.936;4.046;2022-09-09T07:05:57;11.87;;;2.30;;
19374;SDS011;9823;50.936;4.046;2022-09-09T07:08:24;9.40;;;2.47;;
19374;SDS011;9823;50.936;4.046;2022-09-09T07:10:50;8.30;;;2.23;;
19374;SDS011;9823;50.936;4.046;2022-09-09T07:13:19;13.73;;;2.33;;
19374;SDS011;9823;50.936;4.046;2022-09-09T07:15:46;9.47;;;2.00;;
19374;SDS011;9823;50.936;4.046;2022-09-09T07:18:12;11.20;;;2.37;;
19374;SDS011;9823;50.936;4.046;2022-09-09T07:20:38;12.83;;;3.10;;
19374;SDS011;9823;50.936;4.046;2022-09-09T07:23:07;14.30;;;2.60;;
19374;SDS011;9823;50.936;4.046;2022-09-09T07:25:36;11.87;;;2.47;;
19374;SDS011;9823;50.936;4.046;2022-09-09T07:28:02;14.70;;;2.63;;
19374;SDS011;9823;50.936;4.046;2022-09-09T07:30:28;13.60;;;2.30;;
19374;SDS011;9823;50.936;4.046;2022-09-09T07:32:56;14.13;;;2.50;;
19374;SDS011;9823;50.936;4.046;2022-09-09T07:35:22;14.80;;;2.93;;
19374;SDS011;9823;50.936;4.046;2022-09-09T07:37:48;12.43;;;2.47;;
19374;SDS011;9823;50.936;4.046;2022-09-09T07:40:14;12.67;;;2.40;;
19374;SDS011;9823;50.936;4.046;2022-09-09T07:42:40;7.43;;;2.30;;
19374;SDS011;9823;50.936;4.046;2022-09-09T07:45:06;9.93;;;2.43;;
19374;SDS011;9823;50.936;4.046;2022-09-09T07:47:32;11.23;;;2.27;;
19374;SDS011;9823;50.936;4.046;2022-09-09T07:50:01;15.07;;;2.30;;
19374;SDS011;9823;50.936;4.046;2022-09-09T07:52:27;9.80;;;2.20;;
19374;SDS011;9823;50.936;4.046;2022-09-09T07:54:59;11.77;;;2.17;;
19374;SDS011;9823;50.936;4.046;2022-09-09T07:57:27;11.60;;;2.43;;
19374;SDS011;9823;50.936;4.046;2022-09-09T07:59:55;8.63;;;1.90;;
19374;SDS011;9823;50.936;4.046;2022-09-09T08:02:21;9.90;;;2.27;;
19374;SDS011;9823;50.936;4.046;2022-09-09T08:04:48;11.00;;;2.43;;
19374;SDS011;9823;50.936;4.046;2022-09-09T08:07:14;10.77;;;2.20;;
19374;SDS011;9823;50.936;4.046;2022-09-09T08:09:41;10.17;;;2.50;;
19374;SDS011;9823;50.936;4.046;2022-09-09T08:12:07;11.10;;;2.20;;
19374;SDS011;9823;50.936;4.046;2022-09-09T08:14:34;10.27;;;2.30;;
19374;SDS011;9823;50.936;4.046;2022-09-09T08:17:00;9.73;;;2.03;;
19374;SDS011;9823;50.936;4.046;2022-09-09T08:19:26;10.97;;;2.30;;
19374;SDS011;9823;50.936;4.046;2022-09-09T08:21:54;9.47;;;2.43;;
19374;SDS011;9823;50.936;4.046;2022-09-09T08:24:20;9.50;;;2.10;;
19374;SDS011;9823;50.936;4.046;2022-09-09T08:26:48;13.20;;;2.17;;
19374;SDS011;9823;50.936;4.046;2022-09-09T08:29:14;10.63;;;2.10;;
19374;SDS011;9823;50.936;4.046;2022-09-09T08:31:44;9.37;;;2.07;;
19374;SDS011;9823;50.936;4.046;2022-09-09T08:34:11;13.37;;;2.50;;
19374;SDS011;9823;50.936;4.046;2022-09-09T08:36:41;9.33;;;2.30;;
19374;SDS011;9823;50.936;4.046;2022-09-09T08:39:10;8.00;;;1.50;;
19374;SDS011;9823;50.936;4.046;2022-09-09T08:49:23;9.93;;;2.27;;
19374;SDS011;9823;50.936;4.046;2022-09-09T08:51:53;7.60;;;2.10;;
19374;SDS011;9823;50.936;4.046;2022-09-09T08:54:20;11.30;;;2.30;;
19374;SDS011;9823;50.936;4.046;2022-09-09T08:56:49;14.00;;;2.73;;
19374;SDS011;9823;50.936;4.046;2022-09-09T08:59:17;11.60;;;2.10;;
19374;SDS011;9823;50.936;4.046;2022-09-09T09:02:15;10.07;;;2.33;;
19374;SDS011;9823;50.936;4.046;2022-09-09T09:04:51;12.27;;;2.27;;
19374;SDS011;9823;50.936;4.046;2022-09-09T09:07:28;12.37;;;3.13;;
19374;SDS011;9823;50.936;4.046;2022-09-09T09:12:48;10.40;;;2.10;;
19374;SDS011;9823;50.936;4.046;2022-09-09T09:15:18;9.70;;;2.20;;
19374;SDS011;9823;50.936;4.046;2022-09-09T09:17:46;5.77;;;2.10;;
19374;SDS011;9823;50.936;4.046;2022-09-09T09:20:13;12.47;;;3.17;;
19374;SDS011;9823;50.936;4.046;2022-09-09T09:22:50;10.93;;;2.80;;
19374;SDS011;9823;50.936;4.046;2022-09-09T09:25:22;11.30;;;2.43;;
19374;SDS011;9823;50.936;4.046;2022-09-09T09:30:21;9.77;;;2.07;;
19374;SDS011;9823;50.936;4.046;2022-09-09T09:32:53;12.57;;;2.20;;
19374;SDS011;9823;50.936;4.046;2022-09-09T09:35:20;8.73;;;2.03;;
19374;SDS011;9823;50.936;4.046;2022-09-09T09:37:46;12.13;;;2.67;;
19374;SDS011;9823;50.936;4.046;2022-09-09T09:40:19;10.47;;;2.23;;
19374;SDS011;9823;50.936;4.046;2022-09-09T09:48:05;8.67;;;1.90;;
19374;SDS011;9823;50.936;4.046;2022-09-09T09:50:34;7.77;;;1.97;;
19374;SDS011;9823;50.936;4.046;2022-09-09T09:53:03;9.00;;;2.20;;
19374;SDS011;9823;50.936;4.046;2022-09-09T09:55:32;9.00;;;2.07;;
19374;SDS011;9823;50.936;4.046;2022-09-09T09:58:03;13.57;;;2.40;;
19374;SDS011;9823;50.936;4.046;2022-09-09T10:00:29;6.70;;;2.10;;
19374;SDS011;9823;50.936;4.046;2022-09-09T10:02:55;7.57;;;2.03;;
19374;SDS011;9823;50.936;4.046;2022-09-09T10:05:25;6.70;;;1.80;;
19374;SDS011;9823;50.936;4.046;2022-09-09T10:08:02;8.47;;;2.17;;
19374;SDS011;9823;50.936;4.046;2022-09-09T10:11:05;10.77;;;2.00;;
19374;SDS011;9823;50.936;4.046;2022-09-09T10:15:56;6.27;;;1.80;;
19374;SDS011;9823;50.936;4.046;2022-09-09T10:33:51;11.53;;;2.13;;
19374;SDS011;9823;50.936;4.046;2022-09-09T10:36:23;10.37;;;2.27;;
19374;SDS011;9823;50.936;4.046;2022-09-09T10:41:31;6.93;;;1.90;;
19374;SDS011;9823;50.936;4.046;2022-09-09T10:49:34;7.50;;;2.10;;
19374;SDS011;9823;50.936;4.046;2022-09-09T10:56:56;6.77;;;1.70;;
19374;SDS011;9823;50.936;4.046;2022-09-09T10:59:28;4.80;;;1.50;;
19374;SDS011;9823;50.936;4.046;2022-09-09T11:02:01;4.53;;;1.30;;
19374;SDS011;9823;50.936;4.046;2022-09-09T11:04:42;3.80;;;1.37;;
19374;SDS011;9823;50.936;4.046;2022-09-09T11:07:10;10.97;;;1.80;;
19374;SDS011;9823;50.936;4.046;2022-09-09T11:09:43;5.97;;;1.53;;
19374;SDS011;9823;50.936;4.046;2022-09-09T11:12:12;7.10;;;2.07;;
19374;SDS011;9823;50.936;4.046;2022-09-09T11:17:10;5.07;;;1.57;;
19374;SDS011;9823;50.936;4.046;2022-09-09T11:19:41;6.17;;;1.50;;
19374;SDS011;9823;50.936;4.046;2022-09-09T11:25:01;6.40;;;1.33;;
19374;SDS011;9823;50.936;4.046;2022-09-09T11:33:11;6.00;;;1.83;;
19374;SDS011;9823;50.936;4.046;2022-09-09T11:38:31;6.40;;;2.30;;
19374;SDS011;9823;50.936;4.046;2022-09-09T11:41:03;4.43;;;1.33;;
19374;SDS011;9823;50.936;4.046;2022-09-09T11:43:32;8.20;;;1.60;;
19374;SDS011;9823;50.936;4.046;2022-09-09T11:46:00;6.50;;;1.40;;
19374;SDS011;9823;50.936;4.046;2022-09-09T11:53:30;6.60;;;1.50;;
19374;SDS011;9823;50.936;4.046;2022-09-09T11:56:09;9.37;;;1.87;;
19374;SDS011;9823;50.936;4.046;2022-09-09T11:58:37;6.83;;;1.83;;
19374;SDS011;9823;50.936;4.046;2022-09-09T12:01:26;4.47;;;1.40;;
19374;SDS011;9823;50.936;4.046;2022-09-09T12:04:16;6.97;;;2.13;;
19374;SDS011;9823;50.936;4.046;2022-09-09T12:10:25;3.00;;;1.50;;
19374;SDS011;9823;50.936;4.046;2022-09-09T12:12:22;9.40;;;2.60;;
19374;SDS011;9823;50.936;4.046;2022-09-09T12:14:58;5.23;;;1.77;;
19374;SDS011;9823;50.936;4.046;2022-09-09T12:17:26;5.87;;;1.50;;
19374;SDS011;9823;50.936;4.046;2022-09-09T12:20:11;4.67;;;1.50;;
19374;SDS011;9823;50.936;4.046;2022-09-09T12:25:16;4.37;;;1.60;;
19374;SDS011;9823;50.936;4.046;2022-09-09T12:28:09;4.03;;;1.40;;
19374;SDS011;9823;50.936;4.046;2022-09-09T12:30:36;7.37;;;1.70;;
19374;SDS011;9823;50.936;4.046;2022-09-09T12:33:10;7.10;;;2.03;;
19374;SDS011;9823;50.936;4.046;2022-09-09T12:35:37;9.00;;;1.70;;
19374;SDS011;9823;50.936;4.046;2022-09-09T12:38:06;5.23;;;1.60;;
19374;SDS011;9823;50.936;4.046;2022-09-09T12:40:36;4.77;;;1.47;;
19374;SDS011;9823;50.936;4.046;2022-09-09T12:43:19;7.63;;;1.77;;
19374;SDS011;9823;50.936;4.046;2022-09-09T12:45:52;6.30;;;1.77;;
19374;SDS011;9823;50.936;4.046;2022-09-09T12:48:25;4.93;;;1.40;;
19374;SDS011;9823;50.936;4.046;2022-09-09T12:50:52;5.80;;;1.63;;
19374;SDS011;9823;50.936;4.046;2022-09-09T12:53:25;3.77;;;1.63;;
19374;SDS011;9823;50.936;4.046;2022-09-09T12:55:57;5.13;;;1.70;;
19374;SDS011;9823;50.936;4.046;2022-09-09T12:58:24;7.60;;;1.73;;
19374;SDS011;9823;50.936;4.046;2022-09-09T13:00:51;6.33;;;1.70;;
19374;SDS011;9823;50.936;4.046;2022-09-09T13:03:20;7.10;;;1.70;;
19374;SDS011;9823;50.936;4.046;2022-09-09T13:05:46;3.33;;;1.70;;
19374;SDS011;9823;50.936;4.046;2022-09-09T13:08:13;5.87;;;1.77;;
19374;SDS011;9823;50.936;4.046;2022-09-09T13:10:40;3.57;;;1.70;;
19374;SDS011;9823;50.936;4.046;2022-09-09T13:13:13;4.13;;;1.90;;
19374;SDS011;9823;50.936;4.046;2022-09-09T13:15:47;5.43;;;1.67;;
19374;SDS011;9823;50.936;4.046;2022-09-09T13:18:13;6.43;;;1.80;;
19374;SDS011;9823;50.936;4.046;2022-09-09T13:20:44;5.03;;;1.60;;
19374;SDS011;9823;50.936;4.046;2022-09-09T13:23:13;3.67;;;1.60;;
19374;SDS011;9823;50.936;4.046;2022-09-09T13:25:40;4.27;;;1.70;;
19374;SDS011;9823;50.936;4.046;2022-09-09T13:28:22;6.30;;;1.60;;
19374;SDS011;9823;50.936;4.046;2022-09-09T13:30:56;3.00;;;1.30;;
19374;SDS011;9823;50.936;4.046;2022-09-09T13:33:28;3.70;;;1.23;;
19374;SDS011;9823;50.936;4.046;2022-09-09T13:35:56;3.27;;;1.60;;
19374;SDS011;9823;50.936;4.046;2022-09-09T13:38:35;6.20;;;1.80;;
19374;SDS011;9823;50.936;4.046;2022-09-09T13:41:09;5.87;;;1.37;;
19374;SDS011;9823;50.936;4.046;2022-09-09T13:43:43;3.87;;;1.47;;
19374;SDS011;9823;50.936;4.046;2022-09-09T13:48:58;5.47;;;1.40;;
19374;SDS011;9823;50.936;4.046;2022-09-09T13:51:29;3.93;;;1.23;;
19374;SDS011;9823;50.936;4.046;2022-09-09T13:53:56;2.80;;;1.30;;
19374;SDS011;9823;50.936;4.046;2022-09-09T13:56:22;6.70;;;1.70;;
19374;SDS011;9823;50.936;4.046;2022-09-09T13:58:48;5.10;;;1.40;;
19374;SDS011;9823;50.936;4.046;2022-09-09T14:01:16;4.00;;;1.47;;
19374;SDS011;9823;50.936;4.046;2022-09-09T14:03:42;3.67;;;1.23;;
19374;SDS011;9823;50.936;4.046;2022-09-09T14:06:09;3.07;;;1.50;;
19374;SDS011;9823;50.936;4.046;2022-09-09T14:08:35;3.43;;;1.33;;
19374;SDS011;9823;50.936;4.046;2022-09-09T14:11:05;5.43;;;1.40;;
19374;SDS011;9823;50.936;4.046;2022-09-09T14:13:31;3.83;;;1.53;;
19374;SDS011;9823;50.936;4.046;2022-09-09T14:15:57;2.33;;;1.27;;
19374;SDS011;9823;50.936;4.046;2022-09-09T14:18:26;3.27;;;1.43;;
19374;SDS011;9823;50.936;4.046;2022-09-09T14:20:54;8.30;;;1.50;;
19374;SDS011;9823;50.936;4.046;2022-09-09T14:23:23;4.03;;;1.50;;
19374;SDS011;9823;50.936;4.046;2022-09-09T14:25:50;6.70;;;1.47;;
19374;SDS011;9823;50.936;4.046;2022-09-09T14:28:16;4.40;;;1.73;;
19374;SDS011;9823;50.936;4.046;2022-09-09T14:30:44;6.43;;;1.40;;
19374;SDS011;9823;50.936;4.046;2022-09-09T14:33:11;4.37;;;1.60;;
19374;SDS011;9823;50.936;4.046;2022-09-09T14:35:40;3.93;;;1.27;;
19374;SDS011;9823;50.936;4.046;2022-09-09T14:38:09;4.10;;;1.30;;
19374;SDS011;9823;50.936;4.046;2022-09-09T14:40:35;5.23;;;1.40;;
19374;SDS011;9823;50.936;4.046;2022-09-09T14:43:02;3.27;;;1.30;;
19374;SDS011;9823;50.936;4.046;2022-09-09T14:45:28;5.63;;;1.67;;
19374;SDS011;9823;50.936;4.046;2022-09-09T14:47:54;7.20;;;1.90;;
19374;SDS011;9823;50.936;4.046;2022-09-09T14:50:20;3.90;;;1.60;;
19374;SDS011;9823;50.936;4.046;2022-09-09T14:52:49;5.50;;;1.63;;
19374;SDS011;9823;50.936;4.046;2022-09-09T14:55:15;4.60;;;1.73;;
19374;SDS011;9823;50.936;4.046;2022-09-09T14:57:42;5.00;;;1.50;;
19374;SDS011;9823;50.936;4.046;2022-09-09T15:00:09;9.13;;;1.50;;
19374;SDS011;9823;50.936;4.046;2022-09-09T15:02:36;2.90;;;1.50;;
19374;SDS011;9823;50.936;4.046;2022-09-09T15:05:03;7.13;;;1.70;;
19374;SDS011;9823;50.936;4.046;2022-09-09T15:07:31;4.50;;;1.87;;
19374;SDS011;9823;50.936;4.046;2022-09-09T15:09:57;7.50;;;1.70;;
19374;SDS011;9823;50.936;4.046;2022-09-09T15:12:25;4.83;;;1.70;;
19374;SDS011;9823;50.936;4.046;2022-09-09T15:14:53;6.93;;;1.87;;
19374;SDS011;9823;50.936;4.046;2022-09-09T15:17:19;6.00;;;1.50;;
19374;SDS011;9823;50.936;4.046;2022-09-09T15:19:45;5.20;;;1.87;;
19374;SDS011;9823;50.936;4.046;2022-09-09T15:22:14;5.33;;;1.63;;
19374;SDS011;9823;50.936;4.046;2022-09-09T15:24:40;6.50;;;1.90;;
19374;SDS011;9823;50.936;4.046;2022-09-09T15:27:06;6.00;;;1.83;;
19374;SDS011;9823;50.936;4.046;2022-09-09T15:29:32;3.23;;;1.43;;
19374;SDS011;9823;50.936;4.046;2022-09-09T15:31:58;18.17;;;4.33;;
19374;SDS011;9823;50.936;4.046;2022-09-09T15:34:24;10.90;;;3.27;;
19374;SDS011;9823;50.936;4.046;2022-09-09T15:36:50;11.33;;;3.00;;
19374;SDS011;9823;50.936;4.046;2022-09-09T15:39:16;8.10;;;2.10;;
19374;SDS011;9823;50.936;4.046;2022-09-09T15:41:43;5.83;;;2.40;;
19374;SDS011;9823;50.936;4.046;2022-09-09T15:44:12;7.70;;;1.93;;
19374;SDS011;9823;50.936;4.046;2022-09-09T15:46:39;9.50;;;2.80;;
19374;SDS011;9823;50.936;4.046;2022-09-09T15:51:32;5.33;;;2.23;;
19374;SDS011;9823;50.936;4.046;2022-09-09T15:53:58;5.53;;;2.27;;
19374;SDS011;9823;50.936;4.046;2022-09-09T15:56:25;3.83;;;1.83;;
19374;SDS011;9823;50.936;4.046;2022-09-09T15:58:54;5.77;;;2.10;;
19374;SDS011;9823;50.936;4.046;2022-09-09T16:01:20;7.33;;;2.23;;
19374;SDS011;9823;50.936;4.046;2022-09-09T16:03:49;8.43;;;2.70;;
19374;SDS011;9823;50.936;4.046;2022-09-09T16:06:16;8.27;;;3.03;;
19374;SDS011;9823;50.936;4.046;2022-09-09T16:08:44;7.67;;;2.40;;
19374;SDS011;9823;50.936;4.046;2022-09-09T16:11:15;8.03;;;2.47;;
19374;SDS011;9823;50.936;4.046;2022-09-09T16:13:43;5.40;;;2.50;;
19374;SDS011;9823;50.936;4.046;2022-09-09T16:16:10;7.80;;;3.07;;
19374;SDS011;9823;50.936;4.046;2022-09-09T16:18:47;2.97;;;1.50;;
19374;SDS011;9823;50.936;4.046;2022-09-09T16:21:23;4.07;;;1.67;;
19374;SDS011;9823;50.936;4.046;2022-09-09T16:23:50;3.30;;;1.37;;
19374;SDS011;9823;50.936;4.046;2022-09-09T16:26:18;3.30;;;1.50;;
19374;SDS011;9823;50.936;4.046;2022-09-09T16:28:44;2.50;;;1.33;;
19374;SDS011;9823;50.936;4.046;2022-09-09T16:31:13;3.53;;;1.63;;
19374;SDS011;9823;50.936;4.046;2022-09-09T16:33:39;3.40;;;1.50;;
19374;SDS011;9823;50.936;4.046;2022-09-09T16:36:12;2.73;;;1.60;;
19374;SDS011;9823;50.936;4.046;2022-09-09T16:38:41;3.53;;;1.70;;
19374;SDS011;9823;50.936;4.046;2022-09-09T16:41:12;4.07;;;1.53;;
19374;SDS011;9823;50.936;4.046;2022-09-09T16:43:39;3.67;;;1.40;;
19374;SDS011;9823;50.936;4.046;2022-09-09T16:46:12;7.07;;;1.80;;
19374;SDS011;9823;50.936;4.046;2022-09-09T16:48:40;6.67;;;2.20;;
19374;SDS011;9823;50.936;4.046;2022-09-09T16:51:09;7.17;;;2.70;;
19374;SDS011;9823;50.936;4.046;2022-09-09T16:53:38;6.80;;;2.37;;
19374;SDS011;9823;50.936;4.046;2022-09-09T16:56:05;5.83;;;1.87;;
19374;SDS011;9823;50.936;4.046;2022-09-09T16:58:31;5.37;;;2.13;;
19374;SDS011;9823;50.936;4.046;2022-09-09T17:01:00;4.57;;;1.60;;
19374;SDS011;9823;50.936;4.046;2022-09-09T17:03:32;2.40;;;1.60;;
19374;SDS011;9823;50.936;4.046;2022-09-09T17:05:58;5.53;;;2.00;;
19374;SDS011;9823;50.936;4.046;2022-09-09T17:08:33;3.17;;;1.50;;